Date,TemperatureHighF,TemperatureAvgF,TemperatureLowF,DewpointHighF,DewpointAvgF,DewpointLowF,HumidityHigh,HumidityAvg,HumidityLow,PressureMaxIn,PressureMinIn,WindSpeedMaxMPH,WindSpeedAvgMPH,GustSpeedMaxMPH,PrecipitationSumIn
2013-4-23,54.3,52.6,51.1,35.4,34.8,34.1,54,51,47,30.15,30.14,0,0,2,0.00
2013-4-24,69.0,51.1,46.0,51.6,42.7,39.7,79,74,51,30.02,29.78,5,2,9,0.03
2013-4-25,59.2,55.2,38.7,36.2,29.2,25.0,77,39,27,30.34,30.25,3,1,7,0.00
2013-4-28,65.3,63.3,62.0,43.1,40.4,39.0,50,43,38,30.17,30.15,4,3,5,0.00
2013-4-29,55.7,54.9,54.6,50.6,50.2,49.9,85,84,83,30.19,30.18,3,2,8,0.02
2013-4-30,71.8,61.1,53.9,53.9,51.3,49.6,88,72,48,30.34,30.18,4,1,11,0.00
2013-5-1,79.4,64.5,54.7,50.3,39.1,27.3,82,46,17,30.48,30.34,6,1,14,0.00
2013-5-2,82.3,69.8,53.0,43.3,39.6,33.3,57,35,20,30.53,30.35,4,1,10,0.00
2013-5-3,59.0,52.6,48.8,44.8,42.9,39.9,83,70,49,30.41,30.35,1,0,2,0.00
2013-5-7,68.3,64.8,60.0,53.2,52.1,51.0,76,64,54,30.14,30.11,2,0,2,0.00
2013-5-8,70.3,62.1,54.9,63.1,57.0,50.8,96,84,67,30.16,30.00,9,0,9,0.40
2013-5-9,72.0,61.4,52.7,59.4,55.0,50.9,97,81,57,30.05,29.97,9,1,9,0.03
2013-5-10,75.6,62.1,49.9,59.4,55.5,49.5,99,81,48,30.06,29.83,12,1,12,0.49
2013-5-11,63.2,58.5,49.0,59.6,52.6,44.9,97,82,61,29.86,29.75,4,1,8,0.41
2013-5-12,54.5,47.7,40.7,45.3,34.4,25.3,97,63,34,30.02,29.78,9,3,16,0.01
2013-5-13,51.2,43.2,36.3,33.0,30.0,27.2,76,60,40,30.22,30.01,4,2,12,0.00
2013-5-14,61.0,45.8,29.6,36.9,30.9,26.8,98,61,29,30.27,30.09,3,0,14,0.00
2013-5-15,83.4,62.4,40.4,58.3,46.0,32.2,85,58,36,30.09,29.61,7,2,16,0.07
2013-5-16,78.8,65.0,50.9,48.2,42.4,30.9,82,48,19,30.07,29.81,7,2,18,0.00
2013-5-17,67.5,54.8,40.7,43.3,40.3,32.4,94,62,28,30.33,30.07,2,0,6,0.00
2013-5-18,74.4,57.9,39.9,50.6,45.4,39.1,98,67,34,30.38,30.25,3,1,7,0.00
2013-5-19,73.8,64.5,57.8,60.3,56.0,50.6,82,74,61,30.27,30.12,5,2,11,0.00
2013-5-20,88.8,74.0,61.1,66.0,61.3,57.8,91,67,40,30.15,29.94,2,1,6,0.00
2013-5-21,86.8,72.8,64.5,71.7,65.5,60.5,97,79,55,29.99,29.80,5,0,10,0.55
2013-5-22,89.5,74.4,63.3,70.6,66.3,55.6,99,79,44,29.89,29.73,5,1,10,0.01
2013-5-23,70.0,53.5,48.7,61.7,51.5,47.1,95,93,75,29.91,29.81,2,2,5,0.75
2013-5-24,48.2,42.9,39.8,46.8,41.0,38.0,96,93,78,30.26,29.92,3,1,7,0.13
2013-5-25,57.6,49.6,41.0,40.1,36.8,32.9,85,63,40,30.28,30.21,5,2,10,0.00
2013-5-26,62.8,53.1,42.9,39.9,35.9,29.0,87,55,29,30.29,30.18,4,1,11,0.00
2013-5-27,73.0,57.4,39.2,44.4,37.1,31.9,93,51,24,30.36,30.23,2,1,4,0.00
2013-5-28,61.7,55.5,49.3,56.9,50.1,41.5,96,82,60,30.26,30.07,3,1,6,0.76
2013-5-29,84.9,69.2,57.9,69.2,63.0,56.8,99,83,53,30.10,29.99,4,1,9,0.55
2013-6-1,90.8,82.5,71.4,68.8,66.6,64.8,87,60,45,30.01,29.85,3,1,5,0.00
2013-6-2,82.6,74.0,67.8,67.8,64.5,55.3,93,74,47,29.88,29.76,5,2,8,0.02
2013-6-3,62.4,56.0,49.9,47.6,44.9,42.8,85,67,53,30.10,30.03,2,0,3,0.00
2013-6-4,68.5,56.5,44.5,45.5,40.6,28.6,97,60,24,30.25,30.10,3,1,6,0.00
2013-6-5,49.7,48.2,47.2,45.5,44.7,43.6,91,88,83,30.26,30.25,0,0,1,0.00
2013-6-6,60.1,57.0,55.0,56.8,55.3,53.2,97,94,78,30.11,30.01,3,0,5,1.70
2013-6-7,66.3,63.0,58.5,63.2,60.9,57.7,97,93,85,29.93,29.86,2,0,4,0.01
2013-6-8,65.3,60.4,56.6,61.0,57.9,56.3,99,92,78,30.17,29.86,2,0,4,0.02
2013-6-9,77.6,65.1,52.4,58.6,55.4,51.9,99,74,46,30.28,30.17,2,0,4,0.00
2013-6-10,68.3,62.8,57.2,64.3,59.4,55.8,96,89,73,30.22,29.97,2,1,6,0.23
2013-6-12,70.3,65.0,62.5,58.0,57.0,55.8,85,76,60,29.92,29.88,1,0,1,0.00
2013-6-13,63.2,60.4,56.7,60.0,58.1,55.6,97,92,83,29.88,29.60,2,1,4,0.92
2013-6-14,74.4,63.1,51.9,60.0,56.4,51.4,99,81,55,30.03,29.84,3,1,7,0.00
2013-6-15,62.9,61.0,58.5,58.6,57.5,56.2,92,88,84,30.07,30.04,1,0,1,0.00
2013-6-17,69.2,65.2,60.7,62.7,61.5,59.6,97,88,74,30.01,29.96,1,0,2,0.05
2013-6-18,69.2,62.4,54.3,59.9,54.2,44.5,98,77,41,30.10,29.97,2,1,5,0.00
2013-6-19,68.4,57.9,47.2,49.4,45.0,38.6,98,66,34,30.30,30.10,2,1,4,0.00
2013-6-20,79.9,61.5,44.4,56.7,48.2,40.3,99,66,33,30.35,30.29,3,1,6,0.00
2013-6-21,86.1,68.7,50.1,59.8,53.8,48.6,95,63,34,30.36,30.25,2,0,4,0.00
2013-6-22,89.2,76.5,61.8,73.9,64.1,59.4,94,68,42,30.26,30.08,3,1,4,0.00
2013-6-23,91.1,77.6,71.3,73.3,69.5,66.3,95,77,54,30.15,30.07,2,0,6,0.16
2013-6-24,91.2,79.8,69.2,73.3,68.1,64.0,94,70,43,30.11,30.00,3,1,5,0.00
2013-6-25,85.5,76.7,67.3,70.7,66.4,61.8,92,72,55,30.03,29.86,4,1,7,0.00
2013-6-26,85.8,77.2,72.3,70.2,67.0,62.4,81,71,54,29.90,29.84,3,1,5,0.00
2013-6-27,81.7,74.7,66.7,72.5,69.1,63.6,94,83,66,29.78,29.68,2,0,7,0.03
2013-6-28,66.5,65.8,65.5,64.7,64.3,63.7,97,95,91,29.68,29.63,0,0,1,0.13
2013-7-3,90.5,80.1,70.8,74.5,71.5,68.1,99,76,57,30.24,30.16,2,1,4,0.01
2013-7-4,88.9,78.0,71.0,75.5,71.6,68.8,95,82,55,30.24,30.17,2,0,3,0.03
2013-7-5,88.4,77.1,69.6,76.9,72.4,68.9,99,86,58,30.22,30.11,2,0,4,0.65
2013-7-6,88.7,76.8,69.5,72.1,68.9,62.8,99,79,47,30.23,30.14,2,0,4,0.00
2013-7-7,78.6,76.6,75.0,69.0,67.8,66.9,76,74,71,30.05,30.01,1,1,4,0.26
2013-7-8,85.8,75.8,69.7,73.4,68.7,64.2,97,79,60,30.13,30.04,2,0,4,0.37
2013-7-9,86.6,76.3,69.1,73.2,70.6,68.5,99,84,57,30.12,29.99,3,0,5,0.01
2013-7-20,77.3,71.3,65.9,67.8,66.1,63.8,98,84,68,29.96,29.87,2,0,4,0.81
2013-7-21,79.0,70.1,63.6,66.6,62.4,58.3,98,79,51,30.08,29.95,2,0,4,0.00
2013-7-22,83.0,71.7,61.8,70.1,65.3,60.2,97,81,58,29.99,29.78,1,0,3,0.06
2013-7-23,85.6,74.4,66.3,70.6,67.6,62.6,98,81,49,29.78,29.59,2,1,5,0.53
2013-7-24,71.2,63.2,52.7,60.9,54.4,49.6,96,74,56,30.04,29.66,3,1,8,0.00
2013-7-25,75.8,61.8,48.4,56.1,52.7,48.1,99,76,45,30.13,30.04,2,0,5,0.00
2013-7-26,79.4,65.6,51.1,61.6,56.4,50.6,99,75,46,30.11,30.01,2,0,4,0.00
2013-7-27,81.7,69.0,58.0,70.9,63.4,56.5,98,84,59,30.01,29.85,3,1,7,0.26
2013-7-28,80.1,68.9,61.1,68.7,65.0,60.2,97,88,59,29.98,29.83,2,0,3,0.22
2013-7-29,73.1,63.9,56.7,60.5,58.2,54.7,99,83,55,30.13,29.98,3,0,5,0.01
2013-7-30,77.7,66.7,56.3,62.5,58.9,55.5,98,78,55,30.20,30.12,3,1,6,0.00
2013-7-31,82.2,68.9,56.2,63.3,59.7,55.4,99,76,43,30.15,29.94,2,0,5,0.00
2013-8-1,78.5,69.4,66.2,68.9,64.9,62.2,96,86,69,29.94,29.75,3,1,6,0.08
2013-8-2,53.6,53.6,53.6,51.3,51.3,51.3,92,92,92,30.05,30.05,0,0,0,0.00
2013-8-3,53.6,53.6,53.6,51.3,51.3,51.3,92,92,92,30.05,30.05,0,0,0,0.00
2013-8-4,53.6,53.6,53.6,51.3,51.3,51.3,92,92,92,30.05,30.05,0,0,0,0.00
2013-8-5,76.1,63.3,50.3,58.4,53.3,49.5,98,73,45,30.10,30.03,3,0,0,0.00
2013-8-6,82.0,67.4,53.6,61.9,56.5,52.2,97,72,39,30.07,30.00,5,1,1,0.00
2013-8-7,69.3,66.6,64.7,63.2,61.6,60.4,86,84,81,30.01,30.00,2,1,4,0.00
2013-8-13,73.1,68.6,64.2,63.9,63.8,63.6,98,86,73,29.74,29.74,2,1,3,0.00
2013-9-2,86.0,76.0,67.4,74.0,69.0,61.7,93,80,61,29.78,29.63,3,1,6,0.22
2013-9-3,69.8,65.4,61.5,61.7,58.1,56.1,88,77,63,29.92,29.76,4,2,8,0.00
2013-9-4,80.2,68.0,52.4,59.9,55.8,51.8,99,68,38,29.99,29.92,4,1,10,0.00
2013-9-5,68.3,61.1,49.5,62.2,50.1,41.6,93,70,41,30.21,29.94,4,1,5,0.00
2013-9-6,49.8,46.3,43.2,44.3,43.0,42.1,97,88,81,30.27,30.20,0,0,0,0.00
2013-9-8,53.0,49.7,48.1,48.4,47.7,47.2,97,93,84,30.12,30.10,0,0,0,0.12
2013-9-9,76.1,60.3,45.5,60.0,51.2,45.0,99,75,46,30.18,29.99,3,1,8,0.00
2013-9-10,93.9,77.6,65.6,77.8,69.1,58.2,95,76,55,30.04,29.92,3,1,6,0.25
2013-9-11,93.9,82.8,73.0,76.3,73.6,70.3,96,76,49,30.02,29.90,3,1,5,0.07
2013-9-12,77.0,72.7,69.4,70.2,68.1,64.2,95,86,77,29.84,29.71,2,0,3,0.20
2013-9-23,49.6,49.1,48.1,45.7,44.4,42.9,87,84,82,30.08,30.03,0,0,1,0.00
2013-9-26,67.0,56.1,49.2,52.7,50.8,48.1,96,84,58,30.14,30.08,2,0,2,0.00
2013-9-27,70.9,55.4,42.4,57.6,50.8,42.1,99,86,59,30.26,30.14,2,0,3,0.00
2013-9-28,74.1,57.8,44.8,57.5,51.3,44.5,99,82,50,30.32,30.20,3,1,8,0.01
2013-9-29,76.7,60.2,47.5,54.6,50.7,47.0,99,74,41,30.20,30.01,3,1,7,0.00
2013-9-30,79.1,62.6,50.3,59.5,54.6,48.7,97,78,49,30.04,29.93,2,0,5,0.00
2013-10-1,77.4,64.6,54.6,61.6,57.5,53.5,98,80,48,30.02,29.92,2,0,4,0.00
2013-10-2,78.7,64.0,53.1,64.6,57.7,52.1,98,82,50,30.07,29.92,4,1,6,0.00
2013-10-3,70.3,54.7,47.2,55.6,50.4,46.9,99,88,45,30.14,30.07,1,0,3,0.00
2013-10-8,51.1,46.6,43.7,46.6,44.8,42.9,97,94,84,30.36,30.34,0,0,0,0.00
2013-10-9,43.6,41.4,39.7,43.0,41.0,39.4,99,98,97,30.39,30.36,0,0,0,0.00
2013-10-12,69.2,69.1,69.1,46.9,46.0,45.1,45,44,42,30.20,30.20,2,2,2,0.00
2013-10-15,65.8,65.8,65.8,56.5,56.5,56.5,72,72,72,30.11,30.11,1,1,1,0.00
2013-10-17,62.9,56.1,51.8,53.0,51.5,49.4,97,86,63,29.72,29.65,1,0,2,0.56
2013-10-18,59.8,53.6,45.1,52.4,45.5,36.6,97,76,47,29.92,29.70,6,2,11,0.04
2013-10-19,52.7,50.1,45.4,45.2,44.6,44.1,96,82,73,29.91,29.90,1,0,1,0.00
2013-10-24,47.1,41.9,38.7,36.6,34.1,29.4,91,75,50,30.00,29.88,4,2,11,0.01
2013-10-25,47.8,42.3,36.5,40.2,36.8,34.3,94,81,64,30.18,30.00,3,1,5,0.08
2013-10-26,44.1,42.7,40.7,37.1,32.9,27.6,87,69,52,30.15,29.93,5,2,7,0.00
2013-10-29,44.3,44.0,43.7,29.1,28.4,27.7,55,54,53,30.47,30.47,0,0,4,0.00
2013-11-2,49.0,44.4,38.8,47.2,42.5,36.9,95,93,88,29.96,29.66,2,1,5,0.25
2013-11-3,38.7,34.4,25.5,37.1,28.0,22.1,94,78,56,30.56,29.96,3,1,6,0.00
2013-11-4,44.2,31.8,21.8,28.7,22.3,16.9,97,73,35,30.69,30.56,2,0,4,0.01
2013-11-5,50.3,48.4,47.3,38.8,36.4,33.9,71,63,54,30.45,30.36,1,0,3,0.00
2013-11-6,61.7,54.5,45.0,50.7,45.4,38.8,88,72,57,30.37,29.83,4,1,9,0.00
2013-11-7,59.3,45.8,38.0,53.6,39.9,30.2,94,80,63,29.98,29.78,5,1,7,0.41
2013-11-8,42.8,38.3,35.3,35.0,30.0,26.0,91,72,53,30.23,29.94,6,2,8,0.02
2013-11-9,47.9,42.2,32.0,34.4,30.8,27.8,88,64,49,30.23,29.81,3,1,5,0.00
2013-11-10,51.6,44.9,40.3,43.1,35.8,30.5,92,71,57,30.13,29.78,7,3,17,0.15
2013-11-11,47.1,39.6,29.9,36.8,31.8,27.3,94,75,51,30.17,29.93,6,2,8,0.01
2013-11-12,33.3,29.1,25.5,28.8,23.4,19.9,91,79,61,30.39,30.10,3,2,7,0.00
2013-11-13,39.3,29.7,21.7,24.0,20.0,15.3,90,68,52,30.45,30.13,4,1,6,0.00
2013-11-14,55.2,41.1,25.7,25.1,20.3,16.5,77,45,25,30.15,30.04,5,1,8,0.00
2013-11-15,55.8,44.6,34.8,31.8,25.4,20.9,63,48,31,30.15,30.07,2,0,3,0.00
2013-11-16,58.7,43.8,34.8,36.8,31.6,26.5,87,63,44,30.27,30.15,2,0,4,0.00
2013-11-17,59.9,57.1,54.1,55.4,52.9,51.8,92,86,81,29.93,29.42,5,2,13,0.12
2013-11-18,58.7,48.7,37.8,55.7,38.8,26.5,92,69,59,29.88,29.40,9,5,16,0.20
2013-11-19,37.9,35.5,29.3,31.4,26.9,22.8,89,71,62,30.45,29.88,5,2,9,0.01
2013-11-20,38.3,30.1,21.1,23.9,20.0,16.1,84,67,46,30.63,30.45,2,0,3,0.00
2013-11-21,45.7,38.3,29.9,37.4,25.9,15.0,88,61,49,30.53,30.30,3,1,9,0.00
2013-11-22,49.1,43.2,35.7,46.9,40.9,29.9,97,92,76,30.30,29.97,5,1,9,0.33
2013-11-23,38.4,30.0,19.6,30.0,22.3,9.2,90,73,47,30.17,29.97,7,3,13,0.00
2013-11-24,25.1,19.5,16.5,19.1,14.6,9.5,92,82,60,30.42,30.13,6,2,9,0.00
2013-11-25,35.8,28.0,19.8,20.1,16.1,12.6,83,62,44,30.43,30.15,3,1,6,0.01
2013-11-26,36.5,33.8,32.4,32.1,28.9,18.2,97,83,53,30.20,29.80,2,0,6,0.42
2013-11-27,34.1,31.2,23.4,32.8,28.9,18.7,98,91,75,29.87,29.58,5,2,10,0.68
2013-11-28,23.4,21.7,19.5,20.0,17.7,13.9,91,84,72,30.28,29.87,4,2,10,0.00
2013-12-1,40.8,36.3,33.6,33.0,30.9,26.8,95,82,62,30.13,29.99,1,0,6,0.21
2013-12-2,40.6,36.8,33.9,35.7,34.1,32.7,96,90,81,29.99,29.86,0,0,1,0.16
2013-12-4,51.4,41.5,33.6,42.2,37.5,32.3,97,86,70,30.07,29.97,3,0,6,0.01
2013-12-5,57.0,57.0,57.0,52.2,52.2,52.2,84,84,84,29.83,29.83,2,2,4,0.00
2013-12-6,36.8,34.6,31.4,31.5,28.6,24.4,89,79,72,30.25,30.10,2,1,3,0.36
2013-12-7,32.5,29.4,24.9,27.2,19.8,12.9,85,68,49,30.56,30.23,4,2,13,0.00
2013-12-8,29.5,25.9,19.2,23.6,16.3,12.8,89,67,54,30.61,30.27,3,1,7,0.00
2013-12-9,41.7,35.2,26.4,36.2,29.5,23.2,90,80,65,30.27,29.87,6,2,8,0.04
2013-12-10,35.4,27.6,21.2,25.2,18.1,10.4,88,67,60,30.08,29.93,7,2,12,0.00
2013-12-11,26.6,22.9,17.5,21.3,15.7,10.0,88,74,62,30.28,30.08,5,2,11,0.00
2013-12-12,21.6,17.6,13.8,12.4,10.4,8.6,86,73,63,30.35,30.13,5,2,9,0.00
2013-12-13,26.2,19.9,12.1,21.4,15.3,7.3,91,82,70,30.42,30.05,5,2,12,0.00
2013-12-14,24.4,14.5,7.9,21.9,10.7,1.7,96,85,69,30.50,29.82,5,1,9,0.00
2013-12-15,28.9,23.0,17.2,23.2,19.0,9.4,94,85,59,29.86,29.64,8,2,11,0.00
2013-12-16,24.2,15.7,-0.2,15.1,10.1,-2.9,92,79,59,30.23,29.86,7,2,10,0.00
2013-12-17,29.3,18.6,-1.8,24.6,15.7,-4.5,95,88,81,30.21,29.94,2,0,7,0.00
2013-12-18,32.4,29.1,23.7,26.3,23.9,21.5,95,81,67,30.09,29.95,5,2,9,0.00
2013-12-19,36.9,34.0,30.0,24.7,23.4,21.7,71,65,61,30.08,29.96,1,1,3,0.00
2013-12-21,57.4,56.6,54.6,52.9,52.1,51.1,89,85,83,29.80,29.77,3,2,6,0.05
2013-12-22,44.0,41.4,36.7,42.5,39.7,35.4,98,94,88,29.99,29.77,2,0,3,0.17
2013-12-23,42.8,37.4,28.9,39.7,33.6,23.6,97,86,63,30.25,29.97,7,1,10,0.03
2013-12-24,28.7,21.6,12.7,26.7,18.1,7.1,93,86,75,30.50,30.21,3,1,7,0.00
2013-12-25,25.1,15.4,4.5,16.1,9.5,2.2,92,78,63,30.58,30.28,2,0,7,0.00
2013-12-26,34.4,29.0,24.0,28.1,21.9,16.4,86,75,67,30.28,30.08,4,1,10,0.00
2013-12-27,33.4,28.2,23.8,28.4,23.4,16.3,93,82,68,30.31,30.14,5,1,9,0.00
2013-12-28,47.9,37.0,28.7,34.4,29.9,25.4,96,77,58,30.13,29.97,3,1,5,0.02
2013-12-29,44.1,39.2,30.4,39.2,33.3,28.9,97,80,60,29.96,29.66,4,0,7,0.31
2013-12-30,38.9,22.2,15.0,33.9,16.6,9.4,92,79,65,30.24,29.72,4,2,13,0.00
2013-12-31,23.1,18.2,16.0,16.3,9.9,4.5,83,70,59,30.27,30.04,9,2,20,0.00
2014-1-1,22.7,17.9,14.1,13.6,9.8,6.7,88,71,51,30.42,30.27,4,2,8,0.00
2014-1-2,14.0,9.4,2.3,10.8,6.3,-0.7,88,87,84,30.33,29.98,2,1,6,0.00